sensor_id;sensor_type;location;lat;lon;timestamp;pressure;altitude;pressure_sealevel;temperature;humidity
39793;BME280;26080;42.264;24.536;2022-07-29T00:00:12;99332.38;;;20.87;100.00
39793;BME280;26080;42.264;24.536;2022-07-29T00:02:38;99363.63;;;20.95;100.00
39793;BME280;26080;42.264;24.536;2022-07-29T00:05:04;99348.16;;;20.79;100.00
39793;BME280;26080;42.264;24.536;2022-07-29T00:07:30;99369.34;;;20.90;100.00
39793;BME280;26080;42.264;24.536;2022-07-29T00:09:56;99361.97;;;21.04;100.00
39793;BME280;26080;42.264;24.536;2022-07-29T00:12:23;99358.63;;;21.21;99.97
39793;BME280;26080;42.264;24.536;2022-07-29T00:14:49;99364.94;;;21.20;98.02
39793;BME280;26080;42.264;24.536;2022-07-29T00:17:14;99367.78;;;21.28;96.53
39793;BME280;26080;42.264;24.536;2022-07-29T00:19:40;99361.28;;;21.11;96.97
39793;BME280;26080;42.264;24.536;2022-07-29T00:22:05;99354.84;;;21.14;96.35
39793;BME280;26080;42.264;24.536;2022-07-29T00:24:31;99349.22;;;20.97;97.14
39793;BME280;26080;42.264;24.536;2022-07-29T00:26:56;99356.22;;;20.98;97.12
39793;BME280;26080;42.264;24.536;2022-07-29T00:29:22;99343.59;;;21.10;95.82
39793;BME280;26080;42.264;24.536;2022-07-29T00:31:47;99365.47;;;21.04;96.58
39793;BME280;26080;42.264;24.536;2022-07-29T00:34:13;99360.56;;;20.99;95.84
39793;BME280;26080;42.264;24.536;2022-07-29T00:36:57;99340.50;;;20.95;95.13
39793;BME280;26080;42.264;24.536;2022-07-29T00:39:22;99359.59;;;21.00;95.62
39793;BME280;26080;42.264;24.536;2022-07-29T00:41:48;99354.63;;;20.77;96.79
39793;BME280;26080;42.264;24.536;2022-07-29T00:44:14;99353.34;;;20.71;97.61
39793;BME280;26080;42.264;24.536;2022-07-29T00:46:39;99352.38;;;20.72;97.20
39793;BME280;26080;42.264;24.536;2022-07-29T00:49:05;99348.50;;;20.55;97.59
39793;BME280;26080;42.264;24.536;2022-07-29T00:51:32;99358.91;;;20.37;100.00
39793;BME280;26080;42.264;24.536;2022-07-29T00:53:59;99360.25;;;20.22;100.00
39793;BME280;26080;42.264;24.536;2022-07-29T00:56:24;99371.94;;;20.10;100.00
39793;BME280;26080;42.264;24.536;2022-07-29T00:58:50;99373.69;;;20.00;100.00
39793;BME280;26080;42.264;24.536;2022-07-29T01:01:16;99369.28;;;19.89;100.00
39793;BME280;26080;42.264;24.536;2022-07-29T01:03:42;99367.84;;;19.85;100.00
39793;BME280;26080;42.264;24.536;2022-07-29T01:06:07;99364.72;;;20.01;100.00
39793;BME280;26080;42.264;24.536;2022-07-29T01:08:34;99362.94;;;20.01;100.00
39793;BME280;26080;42.264;24.536;2022-07-29T01:11:01;99363.59;;;19.94;100.00
39793;BME280;26080;42.264;24.536;2022-07-29T01:13:27;99364.78;;;20.10;100.00
39793;BME280;26080;42.264;24.536;2022-07-29T01:15:57;99362.66;;;19.83;100.00
39793;BME280;26080;42.264;24.536;2022-07-29T01:18:42;99360.31;;;19.69;100.00
39793;BME280;26080;42.264;24.536;2022-07-29T01:21:16;99357.50;;;19.61;100.00
39793;BME280;26080;42.264;24.536;2022-07-29T01:26:38;99351.47;;;19.48;100.00
39793;BME280;26080;42.264;24.536;2022-07-29T01:29:09;99343.88;;;19.55;100.00
39793;BME280;26080;42.264;24.536;2022-07-29T01:31:55;99329.34;;;19.27;100.00
39793;BME280;26080;42.264;24.536;2022-07-29T01:34:28;99360.25;;;19.28;100.00
39793;BME280;26080;42.264;24.536;2022-07-29T01:36:55;99356.97;;;19.35;100.00
39793;BME280;26080;42.264;24.536;2022-07-29T01:39:42;99346.72;;;19.63;100.00
39793;BME280;26080;42.264;24.536;2022-07-29T01:42:22;99354.28;;;19.46;100.00
39793;BME280;26080;42.264;24.536;2022-07-29T01:45:06;99348.88;;;19.37;100.00
39793;BME280;26080;42.264;24.536;2022-07-29T01:47:41;99354.94;;;19.28;100.00
39793;BME280;26080;42.264;24.536;2022-07-29T01:50:11;99343.13;;;19.20;100.00
39793;BME280;26080;42.264;24.536;2022-07-29T01:52:46;99342.63;;;19.27;100.00
39793;BME280;26080;42.264;24.536;2022-07-29T01:55:14;99347.16;;;19.47;100.00
39793;BME280;26080;42.264;24.536;2022-07-29T01:57:42;99342.19;;;19.42;100.00
39793;BME280;26080;42.264;24.536;2022-07-29T02:00:09;99347.31;;;19.34;100.00
39793;BME280;26080;42.264;24.536;2022-07-29T02:02:38;99345.25;;;19.38;100.00
39793;BME280;26080;42.264;24.536;2022-07-29T02:05:06;99344.78;;;19.33;100.00
39793;BME280;26080;42.264;24.536;2022-07-29T02:07:33;99356.88;;;19.26;100.00
39793;BME280;26080;42.264;24.536;2022-07-29T02:10:00;99339.72;;;19.30;100.00
39793;BME280;26080;42.264;24.536;2022-07-29T02:12:28;99338.56;;;19.55;100.00
39793;BME280;26080;42.264;24.536;2022-07-29T02:14:56;99331.66;;;19.52;100.00
39793;BME280;26080;42.264;24.536;2022-07-29T02:17:32;99330.22;;;19.48;100.00
39793;BME280;26080;42.264;24.536;2022-07-29T02:20:00;99332.09;;;19.36;100.00
39793;BME280;26080;42.264;24.536;2022-07-29T02:22:29;99309.97;;;19.15;100.00
39793;BME280;26080;42.264;24.536;2022-07-29T02:24:55;99333.25;;;19.43;100.00
39793;BME280;26080;42.264;24.536;2022-07-29T02:27:23;99338.25;;;19.37;100.00
39793;BME280;26080;42.264;24.536;2022-07-29T02:29:51;99326.31;;;19.31;100.00
39793;BME280;26080;42.264;24.536;2022-07-29T02:32:17;99320.13;;;19.10;100.00
39793;BME280;26080;42.264;24.536;2022-07-29T02:34:43;99333.28;;;19.00;100.00
39793;BME280;26080;42.264;24.536;2022-07-29T02:37:10;99330.38;;;19.03;100.00
39793;BME280;26080;42.264;24.536;2022-07-29T02:39:37;99332.06;;;19.04;100.00
39793;BME280;26080;42.264;24.536;2022-07-29T02:42:07;99326.06;;;18.91;100.00
39793;BME280;26080;42.264;24.536;2022-07-29T02:44:37;99334.09;;;18.80;100.00
39793;BME280;26080;42.264;24.536;2022-07-29T02:49:54;99331.19;;;18.72;100.00
39793;BME280;26080;42.264;24.536;2022-07-29T02:52:33;99315.97;;;18.62;100.00
39793;BME280;26080;42.264;24.536;2022-07-29T02:59:57;99331.66;;;18.77;100.00
39793;BME280;26080;42.264;24.536;2022-07-29T03:02:25;99332.41;;;18.79;100.00
39793;BME280;26080;42.264;24.536;2022-07-29T03:04:53;99338.69;;;18.78;100.00
39793;BME280;26080;42.264;24.536;2022-07-29T03:07:20;99318.75;;;18.61;100.00
39793;BME280;26080;42.264;24.536;2022-07-29T03:09:47;99343.22;;;18.76;100.00
39793;BME280;26080;42.264;24.536;2022-07-29T03:12:14;99321.41;;;18.50;100.00
39793;BME280;26080;42.264;24.536;2022-07-29T03:14:40;99334.66;;;18.61;100.00
39793;BME280;26080;42.264;24.536;2022-07-29T03:17:06;99345.41;;;18.71;100.00
39793;BME280;26080;42.264;24.536;2022-07-29T03:19:32;99326.50;;;18.53;100.00
39793;BME280;26080;42.264;24.536;2022-07-29T03:21:59;99334.66;;;18.61;100.00
39793;BME280;26080;42.264;24.536;2022-07-29T03:24:32;99348.88;;;18.60;100.00
39793;BME280;26080;42.264;24.536;2022-07-29T03:26:59;99357.47;;;18.75;100.00
39793;BME280;26080;42.264;24.536;2022-07-29T03:29:25;99359.66;;;18.70;100.00
39793;BME280;26080;42.264;24.536;2022-07-29T03:31:52;99357.00;;;18.81;100.00
39793;BME280;26080;42.264;24.536;2022-07-29T03:34:17;99356.72;;;18.95;100.00
39793;BME280;26080;42.264;24.536;2022-07-29T03:36:43;99358.44;;;19.17;100.00
39793;BME280;26080;42.264;24.536;2022-07-29T03:39:10;99320.03;;;19.00;100.00
39793;BME280;26080;42.264;24.536;2022-07-29T03:41:38;99330.75;;;19.10;100.00
39793;BME280;26080;42.264;24.536;2022-07-29T03:44:05;99337.69;;;19.22;100.00
39793;BME280;26080;42.264;24.536;2022-07-29T03:46:33;99344.25;;;19.39;100.00
39793;BME280;26080;42.264;24.536;2022-07-29T03:49:01;99346.91;;;19.71;100.00
39793;BME280;26080;42.264;24.536;2022-07-29T03:51:28;99356.50;;;20.04;100.00
39793;BME280;26080;42.264;24.536;2022-07-29T03:53:54;99346.19;;;20.41;100.00
39793;BME280;26080;42.264;24.536;2022-07-29T03:56:23;99361.81;;;21.05;98.49
39793;BME280;26080;42.264;24.536;2022-07-29T03:58:52;99355.97;;;21.79;93.69
39793;BME280;26080;42.264;24.536;2022-07-29T04:01:18;99355.88;;;22.37;89.88
39793;BME280;26080;42.264;24.536;2022-07-29T04:03:45;99345.56;;;22.79;85.55
39793;BME280;26080;42.264;24.536;2022-07-29T04:06:11;99362.97;;;23.28;82.69
39793;BME280;26080;42.264;24.536;2022-07-29T04:08:37;99358.56;;;23.55;82.54
39793;BME280;26080;42.264;24.536;2022-07-29T04:11:04;99361.28;;;23.99;81.83
39793;BME280;26080;42.264;24.536;2022-07-29T04:13:30;99363.72;;;24.36;77.64
39793;BME280;26080;42.264;24.536;2022-07-29T04:15:56;99358.53;;;25.10;76.21
39793;BME280;26080;42.264;24.536;2022-07-29T04:18:21;99362.31;;;25.91;74.88
39793;BME280;26080;42.264;24.536;2022-07-29T04:20:47;99359.63;;;26.07;73.56
39793;BME280;26080;42.264;24.536;2022-07-29T04:23:12;99360.75;;;26.45;71.65
39793;BME280;26080;42.264;24.536;2022-07-29T04:25:39;99366.63;;;26.80;69.77
39793;BME280;26080;42.264;24.536;2022-07-29T04:28:05;99362.06;;;27.28;67.30
39793;BME280;26080;42.264;24.536;2022-07-29T04:30:31;99368.28;;;26.89;68.49
39793;BME280;26080;42.264;24.536;2022-07-29T04:32:57;99344.84;;;27.37;67.21
39793;BME280;26080;42.264;24.536;2022-07-29T04:35:23;99364.56;;;27.52;64.67
39793;BME280;26080;42.264;24.536;2022-07-29T04:37:48;99364.13;;;27.71;62.79
39793;BME280;26080;42.264;24.536;2022-07-29T04:40:14;99363.13;;;27.87;63.05
39793;BME280;26080;42.264;24.536;2022-07-29T04:42:39;99374.22;;;27.38;64.82
39793;BME280;26080;42.264;24.536;2022-07-29T04:45:05;99376.47;;;27.81;62.73
39793;BME280;26080;42.264;24.536;2022-07-29T04:47:31;99372.72;;;28.42;61.16
39793;BME280;26080;42.264;24.536;2022-07-29T04:49:56;99366.94;;;29.26;57.92
39793;BME280;26080;42.264;24.536;2022-07-29T04:52:22;99375.25;;;29.45;54.62
39793;BME280;26080;42.264;24.536;2022-07-29T04:54:49;99377.41;;;29.50;56.00
39793;BME280;26080;42.264;24.536;2022-07-29T04:57:14;99373.72;;;29.36;57.79
39793;BME280;26080;42.264;24.536;2022-07-29T04:59:40;99372.22;;;28.83;59.88
39793;BME280;26080;42.264;24.536;2022-07-29T05:02:05;99379.78;;;28.43;61.23
39793;BME280;26080;42.264;24.536;2022-07-29T05:04:31;99383.56;;;28.34;59.91
39793;BME280;26080;42.264;24.536;2022-07-29T05:06:56;99377.25;;;28.42;60.86
39793;BME280;26080;42.264;24.536;2022-07-29T05:09:22;99383.88;;;28.39;60.04
39793;BME280;26080;42.264;24.536;2022-07-29T05:11:47;99380.16;;;28.40;61.30
39793;BME280;26080;42.264;24.536;2022-07-29T05:14:13;99374.84;;;28.32;61.97
39793;BME280;26080;42.264;24.536;2022-07-29T05:16:38;99376.78;;;27.86;64.18
39793;BME280;26080;42.264;24.536;2022-07-29T05:19:07;99355.63;;;27.83;63.41
39793;BME280;26080;42.264;24.536;2022-07-29T05:21:33;99384.16;;;27.61;63.13
39793;BME280;26080;42.264;24.536;2022-07-29T05:23:58;99386.41;;;27.26;64.00
39793;BME280;26080;42.264;24.536;2022-07-29T05:26:23;99391.03;;;27.40;62.98
39793;BME280;26080;42.264;24.536;2022-07-29T05:28:49;99394.91;;;27.15;64.95
39793;BME280;26080;42.264;24.536;2022-07-29T05:31:14;99388.50;;;27.16;63.97
39793;BME280;26080;42.264;24.536;2022-07-29T05:33:40;99393.13;;;27.30;63.24
39793;BME280;26080;42.264;24.536;2022-07-29T05:36:06;99373.38;;;27.15;63.83
39793;BME280;26080;42.264;24.536;2022-07-29T05:38:35;99388.06;;;26.96;65.53
39793;BME280;26080;42.264;24.536;2022-07-29T05:41:01;99393.03;;;26.68;64.65
39793;BME280;26080;42.264;24.536;2022-07-29T05:43:29;99393.22;;;27.14;62.06
39793;BME280;26080;42.264;24.536;2022-07-29T05:45:55;99396.06;;;27.12;62.23
39793;BME280;26080;42.264;24.536;2022-07-29T05:48:20;99393.63;;;27.03;62.36
39793;BME280;26080;42.264;24.536;2022-07-29T05:50:46;99386.44;;;26.87;63.42
39793;BME280;26080;42.264;24.536;2022-07-29T05:53:11;99405.75;;;26.82;64.40
39793;BME280;26080;42.264;24.536;2022-07-29T05:55:37;99407.53;;;26.98;63.12
39793;BME280;26080;42.264;24.536;2022-07-29T05:58:02;99403.09;;;27.13;62.67
39793;BME280;26080;42.264;24.536;2022-07-29T06:00:28;99405.06;;;27.28;62.49
39793;BME280;26080;42.264;24.536;2022-07-29T06:02:53;99412.13;;;27.29;63.06
39793;BME280;26080;42.264;24.536;2022-07-29T06:05:19;99392.25;;;27.07;65.03
39793;BME280;26080;42.264;24.536;2022-07-29T06:07:44;99407.81;;;27.20;64.86
39793;BME280;26080;42.264;24.536;2022-07-29T06:10:10;99414.94;;;27.35;63.79
39793;BME280;26080;42.264;24.536;2022-07-29T06:12:35;99392.97;;;27.24;64.78
39793;BME280;26080;42.264;24.536;2022-07-29T06:15:01;99417.75;;;27.42;65.08
39793;BME280;26080;42.264;24.536;2022-07-29T06:17:27;99417.88;;;27.49;63.55
39793;BME280;26080;42.264;24.536;2022-07-29T06:19:52;99420.34;;;27.27;66.48
39793;BME280;26080;42.264;24.536;2022-07-29T06:22:17;99417.97;;;27.32;67.22
39793;BME280;26080;42.264;24.536;2022-07-29T06:24:43;99417.03;;;27.48;66.67
39793;BME280;26080;42.264;24.536;2022-07-29T06:27:12;99409.75;;;27.57;64.45
39793;BME280;26080;42.264;24.536;2022-07-29T06:52:44;99397.16;;;28.18;65.81
39793;BME280;26080;42.264;24.536;2022-07-29T06:55:10;99394.91;;;28.07;65.71
39793;BME280;26080;42.264;24.536;2022-07-29T06:57:35;99388.44;;;28.16;64.67
39793;BME280;26080;42.264;24.536;2022-07-29T07:00:01;99391.72;;;27.88;68.63
39793;BME280;26080;42.264;24.536;2022-07-29T07:02:28;99392.41;;;27.82;66.81
39793;BME280;26080;42.264;24.536;2022-07-29T07:04:53;99394.41;;;27.88;67.80
39793;BME280;26080;42.264;24.536;2022-07-29T07:07:19;99395.28;;;28.03;66.80
39793;BME280;26080;42.264;24.536;2022-07-29T07:09:44;99392.88;;;28.09;65.90
39793;BME280;26080;42.264;24.536;2022-07-29T07:12:10;99380.91;;;28.11;65.76
39793;BME280;26080;42.264;24.536;2022-07-29T07:14:35;99393.97;;;27.99;72.16
39793;BME280;26080;42.264;24.536;2022-07-29T07:17:00;99393.41;;;28.04;67.81
39793;BME280;26080;42.264;24.536;2022-07-29T07:19:28;99394.75;;;28.23;66.77
39793;BME280;26080;42.264;24.536;2022-07-29T07:21:54;99386.84;;;28.21;67.44
39793;BME280;26080;42.264;24.536;2022-07-29T07:24:19;99397.41;;;28.08;68.51
39793;BME280;26080;42.264;24.536;2022-07-29T07:26:45;99381.78;;;27.89;69.87
39793;BME280;26080;42.264;24.536;2022-07-29T07:29:10;99390.84;;;28.11;72.85
39793;BME280;26080;42.264;24.536;2022-07-29T07:31:37;99385.19;;;28.20;71.98
39793;BME280;26080;42.264;24.536;2022-07-29T07:34:03;99381.28;;;28.23;70.49
39793;BME280;26080;42.264;24.536;2022-07-29T07:36:28;99391.19;;;28.30;71.29
39793;BME280;26080;42.264;24.536;2022-07-29T07:38:54;99387.00;;;28.57;66.62
39793;BME280;26080;42.264;24.536;2022-07-29T07:41:20;99377.84;;;28.52;67.13
39793;BME280;26080;42.264;24.536;2022-07-29T07:43:45;99382.09;;;28.61;67.47
39793;BME280;26080;42.264;24.536;2022-07-29T07:46:11;99386.94;;;28.66;55.73
39793;BME280;26080;42.264;24.536;2022-07-29T07:48:36;99379.00;;;28.49;60.70
39793;BME280;26080;42.264;24.536;2022-07-29T07:51:02;99387.41;;;28.54;59.58
39793;BME280;26080;42.264;24.536;2022-07-29T07:53:28;99393.25;;;28.43;65.37
39793;BME280;26080;42.264;24.536;2022-07-29T07:55:54;99386.19;;;28.57;63.07
39793;BME280;26080;42.264;24.536;2022-07-29T07:58:20;99384.25;;;28.66;59.98
39793;BME280;26080;42.264;24.536;2022-07-29T08:00:46;99385.97;;;28.73;60.36
39793;BME280;26080;42.264;24.536;2022-07-29T08:03:12;99387.84;;;28.87;59.01
39793;BME280;26080;42.264;24.536;2022-07-29T08:05:41;99381.94;;;28.92;54.74
39793;BME280;26080;42.264;24.536;2022-07-29T08:08:07;99389.63;;;28.80;63.56
39793;BME280;26080;42.264;24.536;2022-07-29T08:10:33;99384.97;;;28.89;55.07
39793;BME280;26080;42.264;24.536;2022-07-29T08:13:19;99390.00;;;28.92;58.60
39793;BME280;26080;42.264;24.536;2022-07-29T08:15:45;99385.31;;;28.86;61.50
39793;BME280;26080;42.264;24.536;2022-07-29T08:18:12;99377.91;;;28.88;58.44
39793;BME280;26080;42.264;24.536;2022-07-29T08:20:38;99378.91;;;29.02;59.14
39793;BME280;26080;42.264;24.536;2022-07-29T08:23:06;99380.19;;;29.20;55.68
39793;BME280;26080;42.264;24.536;2022-07-29T08:25:37;99385.75;;;29.19;56.01
39793;BME280;26080;42.264;24.536;2022-07-29T08:28:04;99378.28;;;29.36;55.18
39793;BME280;26080;42.264;24.536;2022-07-29T08:30:30;99378.53;;;29.41;54.00
39793;BME280;26080;42.264;24.536;2022-07-29T08:32:57;99376.47;;;29.43;55.30
39793;BME280;26080;42.264;24.536;2022-07-29T08:35:23;99358.75;;;29.34;57.46
39793;BME280;26080;42.264;24.536;2022-07-29T08:37:50;99358.22;;;29.45;54.70
39793;BME280;26080;42.264;24.536;2022-07-29T08:40:16;99379.59;;;29.61;55.04
39793;BME280;26080;42.264;24.536;2022-07-29T08:42:42;99363.03;;;29.64;57.96
39793;BME280;26080;42.264;24.536;2022-07-29T08:45:08;99355.97;;;29.63;54.87
39793;BME280;26080;42.264;24.536;2022-07-29T08:47:33;99370.59;;;29.75;53.76
39793;BME280;26080;42.264;24.536;2022-07-29T08:50:02;99359.41;;;29.78;55.79
39793;BME280;26080;42.264;24.536;2022-07-29T08:52:28;99347.19;;;29.83;49.34
39793;BME280;26080;42.264;24.536;2022-07-29T08:54:56;99368.44;;;29.92;47.07
39793;BME280;26080;42.264;24.536;2022-07-29T08:57:22;99358.22;;;29.88;47.46
39793;BME280;26080;42.264;24.536;2022-07-29T08:59:49;99352.75;;;29.74;48.03
39793;BME280;26080;42.264;24.536;2022-07-29T09:02:19;99358.50;;;29.71;49.27
39793;BME280;26080;42.264;24.536;2022-07-29T09:04:46;99338.97;;;29.69;48.65
39793;BME280;26080;42.264;24.536;2022-07-29T09:07:17;99350.16;;;29.66;50.21
39793;BME280;26080;42.264;24.536;2022-07-29T09:09:43;99336.78;;;29.79;48.57
39793;BME280;26080;42.264;24.536;2022-07-29T09:12:11;99325.34;;;29.77;48.05
39793;BME280;26080;42.264;24.536;2022-07-29T09:14:38;99327.88;;;29.86;51.68
39793;BME280;26080;42.264;24.536;2022-07-29T09:17:04;99340.09;;;30.03;50.12
39793;BME280;26080;42.264;24.536;2022-07-29T09:19:31;99338.16;;;30.18;42.56
39793;BME280;26080;42.264;24.536;2022-07-29T09:21:59;99335.19;;;30.13;43.73
39793;BME280;26080;42.264;24.536;2022-07-29T09:24:36;99322.28;;;30.08;42.60
39793;BME280;26080;42.264;24.536;2022-07-29T09:27:08;99331.06;;;30.17;42.39
39793;BME280;26080;42.264;24.536;2022-07-29T09:29:35;99327.13;;;30.20;43.50
39793;BME280;26080;42.264;24.536;2022-07-29T09:32:00;99327.78;;;30.28;42.87
39793;BME280;26080;42.264;24.536;2022-07-29T09:34:30;99319.53;;;30.36;43.53
39793;BME280;26080;42.264;24.536;2022-07-29T09:36:57;99323.56;;;30.54;39.84
39793;BME280;26080;42.264;24.536;2022-07-29T09:39:32;99316.44;;;30.40;38.17
39793;BME280;26080;42.264;24.536;2022-07-29T09:42:03;99313.44;;;30.21;40.21
39793;BME280;26080;42.264;24.536;2022-07-29T09:44:49;99310.72;;;30.21;40.15
39793;BME280;26080;42.264;24.536;2022-07-29T09:47:17;99314.28;;;30.28;42.04
39793;BME280;26080;42.264;24.536;2022-07-29T09:49:56;99318.50;;;30.37;41.17
39793;BME280;26080;42.264;24.536;2022-07-29T09:52:28;99285.06;;;30.38;36.63
39793;BME280;26080;42.264;24.536;2022-07-29T09:55:07;99310.88;;;30.48;39.99
39793;BME280;26080;42.264;24.536;2022-07-29T09:57:33;99312.22;;;30.65;39.60
39793;BME280;26080;42.264;24.536;2022-07-29T10:00:19;99304.38;;;30.83;39.35
39793;BME280;26080;42.264;24.536;2022-07-29T10:02:46;99310.25;;;30.93;42.74
39793;BME280;26080;42.264;24.536;2022-07-29T10:05:23;99303.59;;;30.89;37.58
39793;BME280;26080;42.264;24.536;2022-07-29T10:07:58;99295.84;;;30.80;39.00
39793;BME280;26080;42.264;24.536;2022-07-29T10:10:28;99304.00;;;30.86;39.81
39793;BME280;26080;42.264;24.536;2022-07-29T10:12:56;99295.06;;;30.92;35.76
39793;BME280;26080;42.264;24.536;2022-07-29T10:15:23;99302.38;;;31.05;37.17
39793;BME280;26080;42.264;24.536;2022-07-29T10:17:50;99306.38;;;31.16;34.14
39793;BME280;26080;42.264;24.536;2022-07-29T10:20:15;99302.81;;;31.09;40.81
39793;BME280;26080;42.264;24.536;2022-07-29T10:22:41;99305.31;;;31.17;35.75
39793;BME280;26080;42.264;24.536;2022-07-29T10:25:08;99293.09;;;31.21;36.09
39793;BME280;26080;42.264;24.536;2022-07-29T10:27:35;99277.06;;;31.33;34.63
39793;BME280;26080;42.264;24.536;2022-07-29T10:30:01;99283.31;;;31.33;34.77
39793;BME280;26080;42.264;24.536;2022-07-29T10:43:42;99260.88;;;31.39;40.30
39793;BME280;26080;42.264;24.536;2022-07-29T10:46:10;99271.25;;;31.49;36.13
39793;BME280;26080;42.264;24.536;2022-07-29T10:49:10;99264.38;;;31.73;33.30
39793;BME280;26080;42.264;24.536;2022-07-29T10:59:50;99246.47;;;31.85;33.74
39793;BME280;26080;42.264;24.536;2022-07-29T11:05:02;99247.94;;;31.94;33.55
39793;BME280;26080;42.264;24.536;2022-07-29T11:07:29;99232.50;;;31.88;30.97
39793;BME280;26080;42.264;24.536;2022-07-29T11:15:12;99231.22;;;32.04;28.40
39793;BME280;26080;42.264;24.536;2022-07-29T11:22:59;99235.84;;;31.90;31.86
39793;BME280;26080;42.264;24.536;2022-07-29T11:25:25;99204.22;;;31.84;31.43
39793;BME280;26080;42.264;24.536;2022-07-29T11:27:54;99221.25;;;31.98;32.56
39793;BME280;26080;42.264;24.536;2022-07-29T11:30:51;99220.81;;;32.07;35.90
39793;BME280;26080;42.264;24.536;2022-07-29T11:33:33;99214.97;;;32.10;32.06
39793;BME280;26080;42.264;24.536;2022-07-29T11:36:13;99212.88;;;32.12;32.40
39793;BME280;26080;42.264;24.536;2022-07-29T11:38:39;99204.09;;;32.17;31.89
39793;BME280;26080;42.264;24.536;2022-07-29T11:41:23;99200.94;;;32.27;33.79
39793;BME280;26080;42.264;24.536;2022-07-29T11:43:54;99199.47;;;32.31;33.67
39793;BME280;26080;42.264;24.536;2022-07-29T11:46:43;99190.25;;;32.45;32.77
39793;BME280;26080;42.264;24.536;2022-07-29T11:49:10;99193.31;;;32.55;31.48
39793;BME280;26080;42.264;24.536;2022-07-29T11:51:36;99182.66;;;32.60;30.01
39793;BME280;26080;42.264;24.536;2022-07-29T11:54:04;99167.72;;;32.45;31.80
39793;BME280;26080;42.264;24.536;2022-07-29T11:56:31;99172.69;;;32.54;31.98
39793;BME280;26080;42.264;24.536;2022-07-29T11:59:07;99171.19;;;32.58;33.13
39793;BME280;26080;42.264;24.536;2022-07-29T12:01:35;99151.03;;;32.48;36.30
39793;BME280;26080;42.264;24.536;2022-07-29T12:04:07;99179.69;;;32.68;32.18
39793;BME280;26080;42.264;24.536;2022-07-29T12:06:33;99181.13;;;32.71;33.87
39793;BME280;26080;42.264;24.536;2022-07-29T12:08:59;99167.78;;;32.69;34.41
39793;BME280;26080;42.264;24.536;2022-07-29T12:11:25;99166.75;;;32.70;32.18
39793;BME280;26080;42.264;24.536;2022-07-29T12:13:51;99162.81;;;32.66;32.61
39793;BME280;26080;42.264;24.536;2022-07-29T12:16:16;99170.28;;;32.71;34.10
39793;BME280;26080;42.264;24.536;2022-07-29T12:18:42;99160.50;;;32.70;36.14
39793;BME280;26080;42.264;24.536;2022-07-29T12:21:19;99165.19;;;32.88;30.94
39793;BME280;26080;42.264;24.536;2022-07-29T12:23:55;99175.94;;;32.69;30.87
39793;BME280;26080;42.264;24.536;2022-07-29T12:26:21;99162.38;;;32.69;35.80
39793;BME280;26080;42.264;24.536;2022-07-29T12:28:46;99163.88;;;32.65;33.22
39793;BME280;26080;42.264;24.536;2022-07-29T12:31:15;99166.34;;;32.67;33.31
39793;BME280;26080;42.264;24.536;2022-07-29T12:33:41;99136.31;;;32.68;34.59
39793;BME280;26080;42.264;24.536;2022-07-29T12:36:07;99155.00;;;32.83;34.54
39793;BME280;26080;42.264;24.536;2022-07-29T12:38:36;99135.69;;;32.98;30.96
39793;BME280;26080;42.264;24.536;2022-07-29T12:41:02;99153.38;;;33.07;32.83
39793;BME280;26080;42.264;24.536;2022-07-29T12:43:29;99145.22;;;33.07;31.71
39793;BME280;26080;42.264;24.536;2022-07-29T12:45:55;99144.84;;;33.04;34.48
39793;BME280;26080;42.264;24.536;2022-07-29T12:48:37;99138.53;;;33.10;34.36
39793;BME280;26080;42.264;24.536;2022-07-29T12:51:04;99131.22;;;33.10;33.39
39793;BME280;26080;42.264;24.536;2022-07-29T12:53:31;99129.22;;;33.24;31.14
39793;BME280;26080;42.264;24.536;2022-07-29T12:55:58;99130.81;;;33.32;31.42
39793;BME280;26080;42.264;24.536;2022-07-29T12:58:34;99121.00;;;33.30;30.37
39793;BME280;26080;42.264;24.536;2022-07-29T13:03:26;99124.63;;;33.24;29.47
39793;BME280;26080;42.264;24.536;2022-07-29T13:05:52;99122.81;;;33.18;31.12
39793;BME280;26080;42.264;24.536;2022-07-29T13:08:18;99122.63;;;33.13;33.10
39793;BME280;26080;42.264;24.536;2022-07-29T13:10:45;99126.03;;;33.27;30.12
39793;BME280;26080;42.264;24.536;2022-07-29T13:13:14;99114.38;;;33.26;30.85
39793;BME280;26080;42.264;24.536;2022-07-29T13:15:44;99118.28;;;33.30;33.10
39793;BME280;26080;42.264;24.536;2022-07-29T13:18:31;99113.28;;;33.34;33.19
39793;BME280;26080;42.264;24.536;2022-07-29T13:20:57;99096.56;;;33.37;33.76
39793;BME280;26080;42.264;24.536;2022-07-29T13:23:35;99105.66;;;33.43;31.38
39793;BME280;26080;42.264;24.536;2022-07-29T13:26:10;99101.00;;;33.50;30.61
39793;BME280;26080;42.264;24.536;2022-07-29T13:28:41;99097.97;;;33.58;32.53
39793;BME280;26080;42.264;24.536;2022-07-29T13:31:06;99096.31;;;33.57;31.02
39793;BME280;26080;42.264;24.536;2022-07-29T13:33:32;99090.91;;;33.57;31.22
39793;BME280;26080;42.264;24.536;2022-07-29T13:35:57;99094.66;;;33.56;31.85
39793;BME280;26080;42.264;24.536;2022-07-29T13:38:23;99094.38;;;33.46;34.16
39793;BME280;26080;42.264;24.536;2022-07-29T13:40:49;99090.22;;;33.62;30.63
39793;BME280;26080;42.264;24.536;2022-07-29T13:43:14;99087.53;;;33.62;32.50
39793;BME280;26080;42.264;24.536;2022-07-29T13:45:40;99080.81;;;33.46;35.12
39793;BME280;26080;42.264;24.536;2022-07-29T13:48:06;99088.56;;;33.42;33.88
39793;BME280;26080;42.264;24.536;2022-07-29T13:50:32;99086.97;;;33.53;34.54
39793;BME280;26080;42.264;24.536;2022-07-29T13:52:57;99073.41;;;33.53;33.63
39793;BME280;26080;42.264;24.536;2022-07-29T13:55:23;99077.41;;;33.69;31.83
39793;BME280;26080;42.264;24.536;2022-07-29T13:57:49;99080.34;;;33.67;32.98
39793;BME280;26080;42.264;24.536;2022-07-29T14:00:14;99067.34;;;33.69;32.56